Time;durP1;ratioP1;P1;durP2;ratioP2;P2;SDS_P1;SDS_P2;PMS_P1;PMS_P2;Temp;Humidity;BMP_temperature;BMP_pressure;BME280_temperature;BME280_humidity;BME280_pressure;Samples;Min_cycle;Max_cycle;Signal;HPM_P1;HPM_P2
2021/11/18 00:05:03;;;;;;;19.55;10.30;;;;;;;5.85;100.00;99700.01;4524494;77;28481;-84
2021/11/18 00:11:09;;;;;;;23.02;11.60;;;;;;;5.97;100.00;99698.20;4442202;77;28447;-82
2021/11/18 00:17:10;;;;;;;26.35;13.05;;;;;;;5.94;100.00;99697.25;4462989;77;28496;-85
2021/11/18 00:23:12;;;;;;;24.47;11.38;;;;;;;5.91;100.00;99697.11;4487935;77;28470;-84
2021/11/18 00:29:13;;;;;;;22.87;11.05;;;;;;;5.91;100.00;99713.13;4446675;77;28482;-83
2021/11/18 00:35:20;;;;;;;25.57;12.15;;;;;;;5.86;100.00;99716.86;4479544;77;28544;-83
2021/11/18 00:41:22;;;;;;;26.77;12.95;;;;;;;5.94;100.00;99718.61;4494546;77;28557;-84
2021/11/18 00:47:24;;;;;;;24.70;11.85;;;;;;;5.94;100.00;99722.61;4529291;77;28454;-85
2021/11/18 00:53:27;;;;;;;24.67;11.45;;;;;;;5.88;100.00;99715.33;4497442;77;28492;-84
2021/11/18 00:59:30;;;;;;;23.47;12.55;;;;;;;5.86;100.00;99719.53;4537013;77;28512;-84
2021/11/18 01:05:36;;;;;;;25.75;13.18;;;;;;;5.93;100.00;99728.96;4490166;77;28541;-84
2021/11/18 01:11:39;;;;;;;26.23;12.20;;;;;;;5.92;100.00;99729.98;4492697;77;28541;-81
2021/11/18 01:17:42;;;;;;;25.12;11.85;;;;;;;5.91;100.00;99723.80;4498286;77;28503;-82
2021/11/18 01:23:46;;;;;;;25.70;12.82;;;;;;;5.85;100.00;99737.38;4468839;77;28454;-84
2021/11/18 01:29:48;;;;;;;26.55;12.70;;;;;;;5.87;100.00;99735.86;4514817;77;28437;-84
2021/11/18 01:35:50;;;;;;;24.92;12.45;;;;;;;5.82;100.00;99720.89;4534389;77;28487;-80
2021/11/18 01:41:52;;;;;;;20.17;10.85;;;;;;;5.81;100.00;99732.09;4491945;77;28444;-81
2021/11/18 01:47:55;;;;;;;20.62;10.38;;;;;;;5.84;100.00;99734.37;4421593;77;28452;-82
2021/11/18 01:53:59;;;;;;;22.30;10.60;;;;;;;5.86;100.00;99727.02;4491197;77;28468;-83
2021/11/18 02:00:05;;;;;;;21.48;11.68;;;;;;;5.90;100.00;99726.67;4496560;77;28541;-82
2021/11/18 02:06:32;;;;;;;20.10;10.50;;;;;;;5.89;100.00;99698.33;4489559;77;28455;-83
2021/11/18 02:12:37;;;;;;;18.87;9.38;;;;;;;5.93;100.00;99707.61;4481074;77;28523;-82
2021/11/18 02:18:39;;;;;;;22.95;11.88;;;;;;;5.93;100.00;99708.95;4491029;77;28445;-83
2021/11/18 02:24:48;;;;;;;22.00;11.70;;;;;;;5.95;100.00;99708.25;4517077;77;28462;-82
2021/11/18 02:30:53;;;;;;;24.20;12.18;;;;;;;5.96;100.00;99717.91;4497934;77;28650;-84
2021/11/18 02:36:55;;;;;;;23.25;11.40;;;;;;;5.91;100.00;99717.65;4436807;77;28495;-83
2021/11/18 02:42:59;;;;;;;20.32;10.72;;;;;;;5.83;100.00;99715.88;4475997;77;28455;-83
2021/11/18 02:49:01;;;;;;;19.52;11.00;;;;;;;5.89;100.00;99726.34;4436125;78;28576;-84
2021/11/18 02:55:18;;;;;;;21.60;11.18;;;;;;;5.92;100.00;99737.98;4428450;78;28483;-82
2021/11/18 03:01:30;;;;;;;21.62;11.00;;;;;;;6.02;100.00;99736.39;4476845;77;28492;-85
2021/11/18 03:07:34;;;;;;;19.12;9.43;;;;;;;5.91;100.00;99751.82;4487791;77;28471;-86
2021/11/18 03:13:37;;;;;;;20.08;10.13;;;;;;;5.90;100.00;99756.03;4502759;77;28489;-88
2021/11/18 03:19:40;;;;;;;20.82;10.90;;;;;;;5.88;100.00;99754.02;4499471;77;28478;-80
2021/11/18 03:25:42;;;;;;;20.72;10.78;;;;;;;5.88;100.00;99754.86;4446951;77;28531;-81
2021/11/18 03:31:48;;;;;;;20.37;11.12;;;;;;;5.88;100.00;99759.36;4453677;77;28481;-82
2021/11/18 03:37:52;;;;;;;20.72;10.48;;;;;;;5.83;100.00;99763.91;4505882;77;28485;-83
2021/11/18 03:43:59;;;;;;;22.85;10.90;;;;;;;5.87;100.00;99754.55;4497616;77;28561;-81
2021/11/18 03:50:00;;;;;;;23.83;12.23;;;;;;;5.88;100.00;99766.88;4460795;77;28966;-83
2021/11/18 03:56:06;;;;;;;22.35;11.70;;;;;;;5.84;100.00;99774.94;4482318;77;28448;-82
2021/11/18 04:02:10;;;;;;;24.12;11.50;;;;;;;5.86;100.00;99768.91;4508754;77;28529;-83
2021/11/18 04:08:12;;;;;;;21.45;11.20;;;;;;;5.80;100.00;99769.12;4523905;77;28545;-83
2021/11/18 04:14:15;;;;;;;25.48;12.98;;;;;;;5.85;100.00;99772.06;4467821;77;28469;-82
2021/11/18 04:20:17;;;;;;;23.42;11.60;;;;;;;5.86;100.00;99775.05;4517913;77;28439;-82
2021/11/18 04:26:18;;;;;;;21.23;11.48;;;;;;;5.83;100.00;99770.09;4494882;77;28504;-81
2021/11/18 04:32:25;;;;;;;19.80;10.45;;;;;;;5.86;100.00;99772.91;4445850;79;28438;-82
2021/11/18 04:38:29;;;;;;;21.27;11.45;;;;;;;5.88;100.00;99771.38;4529728;77;28509;-82
2021/11/18 04:44:35;;;;;;;20.17;11.63;;;;;;;5.85;100.00;99788.08;4508739;77;28509;-84
2021/11/18 04:50:37;;;;;;;;;;;;;;;5.85;100.00;99777.41;4379546;79;28493;-88
2021/11/18 04:56:40;;;;;;;19.85;11.05;;;;;;;5.75;100.00;99790.17;4404795;80;20478;-88
2021/11/18 05:02:42;;;;;;;17.82;10.50;;;;;;;5.79;100.00;99795.98;4397396;80;28536;-82
2021/11/18 05:08:45;;;;;;;20.75;11.38;;;;;;;5.72;100.00;99795.88;4403977;80;28868;-82
2021/11/18 05:14:46;;;;;;;17.52;10.13;;;;;;;5.77;100.00;99806.83;4516704;78;28474;-88
2021/11/18 05:20:48;;;;;;;18.60;11.10;;;;;;;5.72;100.00;99799.88;4523662;79;28618;-83
2021/11/18 05:26:49;;;;;;;20.40;11.85;;;;;;;5.59;100.00;99801.82;4521891;79;28527;-85
2021/11/18 05:32:50;;;;;;;18.50;10.48;;;;;;;5.60;100.00;99815.48;4482985;79;28513;-84
2021/11/18 05:38:54;;;;;;;19.98;10.68;;;;;;;5.50;100.00;99825.08;4479783;78;28493;-84
2021/11/18 05:44:56;;;;;;;15.95;9.63;;;;;;;5.53;100.00;99832.71;4466637;78;28462;-86
2021/11/18 05:51:00;;;;;;;17.07;10.20;;;;;;;5.60;100.00;99836.82;4489183;77;28505;-85
2021/11/18 05:57:02;;;;;;;18.32;10.78;;;;;;;5.58;100.00;99841.52;4463176;79;28474;-86
2021/11/18 06:03:04;;;;;;;15.50;9.73;;;;;;;5.57;100.00;99843.86;4494586;77;28519;-85
2021/11/18 06:09:07;;;;;;;19.20;10.68;;;;;;;5.59;100.00;99864.52;4503765;79;28455;-86
2021/11/18 06:15:11;;;;;;;17.30;9.88;;;;;;;5.64;100.00;99864.82;4540237;77;28515;-86
2021/11/18 06:21:13;;;;;;;17.27;9.75;;;;;;;5.69;100.00;99866.44;4507665;79;28447;-86
2021/11/18 06:27:15;;;;;;;22.13;12.30;;;;;;;5.78;100.00;99879.23;4523671;77;28490;-84
2021/11/18 06:33:30;;;;;;;21.27;12.03;;;;;;;5.86;100.00;99885.00;4513906;78;28530;-82
2021/11/18 06:39:35;;;;;;;21.73;11.70;;;;;;;5.74;100.00;99889.92;4374929;79;28485;-83
2021/11/18 06:45:38;;;;;;;22.73;11.22;;;;;;;5.86;100.00;99886.33;4398086;79;28470;-84
2021/11/18 06:51:46;;;;;;;21.12;11.50;;;;;;;5.87;100.00;99883.98;4345837;81;28528;-85
2021/11/18 06:57:49;;;;;;;25.15;12.30;;;;;;;5.82;100.00;99882.34;4407780;79;28559;-85
2021/11/18 07:03:53;;;;;;;21.12;11.83;;;;;;;5.92;100.00;99889.60;4408381;79;28491;-84
2021/11/18 07:09:56;;;;;;;25.23;12.85;;;;;;;5.95;100.00;99893.27;4405126;80;28456;-84
2021/11/18 07:16:04;;;;;;;23.67;12.63;;;;;;;6.00;100.00;99896.21;4409605;79;48265;-83
2021/11/18 07:22:06;;;;;;;24.30;12.73;;;;;;;6.20;100.00;99893.59;4370211;79;28502;-84
2021/11/18 07:28:13;;;;;;;26.23;13.03;;;;;;;6.35;100.00;99894.92;4386359;80;28513;-83
2021/11/18 07:34:16;;;;;;;23.22;13.13;;;;;;;6.30;100.00;99890.16;4395875;79;28541;-84
2021/11/18 07:40:21;;;;;;;22.93;11.90;;;;;;;6.41;100.00;99893.72;4371579;79;29239;-79
2021/11/18 07:46:23;;;;;;;24.10;13.03;;;;;;;6.63;100.00;99901.84;4407607;80;28514;-82
2021/11/18 07:52:29;;;;;;;22.32;12.25;;;;;;;6.82;100.00;99895.09;4407766;80;28523;-84
2021/11/18 07:58:31;;;;;;;24.35;12.45;;;;;;;6.95;100.00;99894.94;4413197;80;28444;-83
2021/11/18 08:04:33;;;;;;;23.15;11.88;;;;;;;7.08;100.00;99892.45;4415227;80;28518;-83
2021/11/18 08:10:35;;;;;;;21.30;10.32;;;;;;;7.42;100.00;99894.67;4415190;79;28458;-79
2021/11/18 08:16:37;;;;;;;21.52;11.18;;;;;;;7.59;100.00;99905.97;4399305;80;28500;-82
2021/11/18 08:22:39;;;;;;;18.90;9.73;;;;;;;7.70;100.00;99917.50;4359743;80;28462;-81
2021/11/18 08:28:42;;;;;;;15.80;9.48;;;;;;;7.52;100.00;99916.08;4391531;79;28598;-82
2021/11/18 08:34:45;;;;;;;18.80;10.10;;;;;;;7.60;100.00;99915.16;4398493;78;28487;-84
2021/11/18 08:41:03;;;;;;;18.70;10.32;;;;;;;7.60;100.00;99923.68;4419139;79;28507;-84
2021/11/18 08:47:07;;;;;;;18.53;9.30;;;;;;;7.70;100.00;99918.00;4441767;79;28514;-83
2021/11/18 08:53:12;;;;;;;17.05;9.03;;;;;;;7.70;100.00;99932.23;4412100;79;28523;-86
2021/11/18 08:59:14;;;;;;;15.60;8.90;;;;;;;7.67;100.00;99936.63;4417382;79;28441;-77
2021/11/18 09:05:17;;;;;;;16.37;9.00;;;;;;;7.64;100.00;99938.33;4433820;79;28510;-77
2021/11/18 09:11:20;;;;;;;17.07;8.05;;;;;;;7.51;100.00;99933.68;4418923;79;28517;-77
2021/11/18 09:17:26;;;;;;;17.32;9.05;;;;;;;7.46;100.00;99948.96;4501678;77;28491;-75
2021/11/18 09:23:34;;;;;;;15.83;8.55;;;;;;;7.56;100.00;99942.48;4510093;77;28552;-76
2021/11/18 09:29:38;;;;;;;16.52;8.58;;;;;;;7.93;100.00;99948.61;4497671;77;28530;-76
2021/11/18 09:35:52;;;;;;;16.50;8.50;;;;;;;8.02;100.00;99949.30;4479326;77;28522;-80
2021/11/18 09:42:09;;;;;;;14.47;7.55;;;;;;;8.06;100.00;99964.80;4397537;79;28452;-76
2021/11/18 09:48:42;;;;;;;16.67;7.62;;;;;;;8.06;100.00;99961.31;4393393;79;28445;-75
2021/11/18 09:55:10;;;;;;;14.00;6.80;;;;;;;8.03;100.00;99953.14;4383332;79;28495;-78
2021/11/18 10:02:03;;;;;;;15.38;7.67;;;;;;;7.98;100.00;99955.58;4373339;80;28553;-77
2021/11/18 10:08:15;;;;;;;16.80;8.23;;;;;;;7.92;100.00;99942.45;4389260;79;28522;-76
2021/11/18 10:14:45;;;;;;;14.85;7.22;;;;;;;7.81;100.00;99954.48;4389571;79;28495;-75
2021/11/18 10:21:05;;;;;;;16.93;6.97;;;;;;;7.70;100.00;99950.97;4401043;79;28544;-80
2021/11/18 10:27:15;;;;;;;13.55;6.65;;;;;;;7.73;100.00;99937.72;4392581;79;28454;-76
2021/11/18 10:33:28;;;;;;;12.55;6.05;;;;;;;7.77;100.00;99942.50;4383027;79;28535;-80
2021/11/18 10:40:00;;;;;;;13.35;6.25;;;;;;;7.92;100.00;99938.92;4381113;79;28452;-78
2021/11/18 10:46:25;;;;;;;15.53;7.08;;;;;;;8.42;100.00;99934.09;4378743;79;28486;-78
2021/11/18 10:52:38;;;;;;;12.15;6.33;;;;;;;8.44;100.00;99940.08;4380783;79;28915;-77
2021/11/18 10:58:47;;;;;;;15.60;6.85;;;;;;;8.46;100.00;99937.53;4384630;79;28524;-77
2021/11/18 11:04:57;;;;;;;12.37;5.65;;;;;;;8.44;100.00;99937.41;4388223;79;28524;-78
2021/11/18 11:11:04;;;;;;;14.78;5.45;;;;;;;8.41;100.00;99936.46;4382467;80;28522;-79
2021/11/18 11:17:50;;;;;;;14.35;6.05;;;;;;;8.57;100.00;99940.20;4387174;79;28528;-75
2021/11/18 11:24:17;;;;;;;14.65;6.40;;;;;;;8.23;100.00;99932.40;4367462;79;28518;-83
2021/11/18 11:30:30;;;;;;;11.22;5.78;;;;;;;8.26;100.00;99929.32;4399480;79;28462;-82
2021/11/18 11:36:46;;;;;;;12.05;5.45;;;;;;;8.22;100.00;99914.14;4423346;79;28500;-83
2021/11/18 11:43:09;;;;;;;10.80;5.47;;;;;;;8.24;100.00;99905.92;4397202;80;28491;-82
2021/11/18 11:49:36;;;;;;;11.15;5.25;;;;;;;8.14;100.00;99910.29;4393724;80;28515;-85
2021/11/18 11:56:20;;;;;;;8.78;4.45;;;;;;;8.22;100.00;99913.33;4418363;79;28498;-83
2021/11/18 12:02:37;;;;;;;10.75;4.17;;;;;;;8.16;100.00;99912.26;4403443;79;28509;-84
2021/11/18 12:08:51;;;;;;;;;;;;;;;8.21;100.00;99910.34;4391392;79;28490;-77
2021/11/18 12:14:54;;;;;;;10.75;4.37;;;;;;;8.05;100.00;99906.09;4400737;79;20230;-77
2021/11/18 12:20:58;;;;;;;8.58;3.95;;;;;;;7.78;100.00;99912.03;4407807;78;28462;-77
2021/11/18 12:27:23;;;;;;;9.85;3.72;;;;;;;7.78;100.00;99914.70;4394532;79;28518;-79
2021/11/18 12:33:30;;;;;;;8.33;4.77;;;;;;;7.67;100.00;99909.87;4363422;79;28591;-77
2021/11/18 12:39:46;;;;;;;10.65;4.30;;;;;;;7.71;100.00;99911.66;4384624;79;28475;-76
2021/11/18 12:46:26;;;;;;;9.80;4.30;;;;;;;7.71;100.00;99915.67;4403230;79;28468;-76
2021/11/18 12:52:39;;;;;;;8.28;3.80;;;;;;;7.76;100.00;99898.02;4393885;79;28478;-77
2021/11/18 12:58:58;;;;;;;10.63;4.40;;;;;;;7.78;100.00;99895.97;4395226;79;28552;-79
2021/11/18 13:05:10;;;;;;;11.40;4.30;;;;;;;7.72;100.00;99906.62;4408301;79;28580;-80
2021/11/18 13:11:45;;;;;;;9.65;4.47;;;;;;;7.78;100.00;99891.11;4394671;79;28498;-80
2021/11/18 13:17:51;;;;;;;13.05;4.62;;;;;;;7.76;100.00;99900.69;4409944;79;28464;-79
2021/11/18 13:24:06;;;;;;;10.25;5.22;;;;;;;7.79;100.00;99892.27;4396802;79;28527;-80
2021/11/18 13:30:25;;;;;;;13.62;5.42;;;;;;;7.79;100.00;99888.25;4393219;79;28517;-79
2021/11/18 13:36:31;;;;;;;11.05;5.10;;;;;;;7.79;100.00;99887.41;4421312;78;28519;-77
2021/11/18 13:42:38;;;;;;;13.00;6.10;;;;;;;7.79;100.00;99885.58;4476204;77;28501;-77
2021/11/18 13:48:51;;;;;;;14.18;5.40;;;;;;;7.71;100.00;99888.38;4422104;79;28478;-78
2021/11/18 13:55:21;;;;;;;12.45;5.90;;;;;;;7.66;100.00;99888.95;4422623;79;28579;-79
2021/11/18 14:01:30;;;;;;;12.88;6.08;;;;;;;7.54;100.00;99890.48;4395274;79;28515;-78
2021/11/18 14:07:40;;;;;;;13.58;6.10;;;;;;;7.63;100.00;99884.48;4399749;79;28562;-77
2021/11/18 14:13:53;;;;;;;14.83;8.70;;;;;;;7.67;100.00;99875.07;4324759;79;273693;-79
2021/11/18 14:20:17;;;;;;;13.85;6.80;;;;;;;7.98;100.00;99858.33;4396936;79;28522;-77
2021/11/18 14:26:24;;;;;;;15.38;6.95;;;;;;;7.66;100.00;99868.06;4406721;79;28469;-77
2021/11/18 14:32:53;;;;;;;15.48;7.65;;;;;;;7.62;100.00;99872.13;4432808;79;28554;-77
2021/11/18 14:38:55;;;;;;;12.85;7.15;;;;;;;7.59;100.00;99880.54;4402404;79;28524;-76
2021/11/18 14:45:05;;;;;;;12.18;6.83;;;;;;;7.43;100.00;99891.80;4402507;79;28507;-80
2021/11/18 14:51:42;;;;;;;15.13;7.45;;;;;;;7.48;100.00;99895.23;4393365;79;28521;-81
2021/11/18 14:57:57;;;;;;;16.15;7.17;;;;;;;7.54;100.00;99889.14;4396875;79;28486;-79
2021/11/18 15:04:07;;;;;;;14.40;7.78;;;;;;;7.39;100.00;99894.54;4413254;79;28499;-79
2021/11/18 15:10:14;;;;;;;14.33;6.53;;;;;;;7.44;100.00;99892.63;4406387;79;28551;-79
2021/11/18 15:16:16;;;;;;;12.73;6.95;;;;;;;7.45;100.00;99896.97;4403208;79;28530;-80
2021/11/18 15:22:22;;;;;;;14.50;6.80;;;;;;;7.43;100.00;99892.31;4384710;80;28508;-80
2021/11/18 15:28:24;;;;;;;;;;;;;;;7.37;100.00;99904.08;4392032;81;28446;-79
2021/11/18 15:34:27;;;;;;;13.35;6.92;;;;;;;7.41;100.00;99905.06;4380254;79;20193;-75
2021/11/18 15:40:30;;;;;;;15.55;7.35;;;;;;;7.30;100.00;99899.19;4376858;79;28498;-76
2021/11/18 15:46:33;;;;;;;14.63;7.62;;;;;;;7.32;100.00;99911.86;4396124;79;28530;-80
2021/11/18 15:52:37;;;;;;;15.45;8.35;;;;;;;7.35;100.00;99913.33;4413496;79;28478;-76
2021/11/18 15:58:41;;;;;;;16.70;8.60;;;;;;;7.38;100.00;99927.66;4396028;79;28474;-76
2021/11/18 16:04:44;;;;;;;17.32;9.53;;;;;;;7.30;100.00;99916.57;4375517;79;28441;-75
2021/11/18 16:10:52;;;;;;;21.12;10.00;;;;;;;7.15;100.00;99932.64;4404288;79;28529;-76
2021/11/18 16:16:58;;;;;;;18.87;9.20;;;;;;;7.10;100.00;99921.66;4394079;79;28462;-74
2021/11/18 16:23:00;;;;;;;19.02;8.90;;;;;;;7.03;100.00;99914.90;4382453;80;28519;-80
2021/11/18 16:29:07;;;;;;;20.05;9.93;;;;;;;7.12;100.00;99927.64;4386017;79;28452;-85
2021/11/18 16:35:09;;;;;;;18.45;9.55;;;;;;;7.22;100.00;99944.23;4402248;79;28500;-83
2021/11/18 16:41:16;;;;;;;20.85;10.32;;;;;;;7.23;100.00;99928.50;4433987;79;28478;-82
2021/11/18 16:47:22;;;;;;;17.82;9.10;;;;;;;7.20;100.00;99919.52;4425808;79;28480;-82
2021/11/18 16:53:24;;;;;;;19.55;8.88;;;;;;;7.19;100.00;99919.20;4524285;77;28460;-81
2021/11/18 16:59:27;;;;;;;17.02;9.98;;;;;;;7.23;100.00;99915.66;4516725;77;28459;-82
2021/11/18 17:05:30;;;;;;;21.25;10.55;;;;;;;7.21;100.00;99924.37;4530308;77;28485;-80
2021/11/18 17:11:34;;;;;;;21.12;10.63;;;;;;;7.10;100.00;99903.78;4490402;77;28477;-81
2021/11/18 17:17:35;;;;;;;19.77;10.88;;;;;;;7.13;100.00;99908.43;4529144;77;28432;-81
2021/11/18 17:23:38;;;;;;;20.45;9.80;;;;;;;7.01;100.00;99910.25;4495872;77;28464;-83
2021/11/18 17:29:48;;;;;;;21.15;11.05;;;;;;;7.05;100.00;99930.77;4488565;77;28445;-83
2021/11/18 17:35:55;;;;;;;22.22;11.43;;;;;;;7.11;100.00;99941.55;4527268;77;28510;-86
2021/11/18 17:42:02;;;;;;;19.32;11.75;;;;;;;7.12;100.00;99938.34;4468306;77;28557;-83
2021/11/18 17:48:05;;;;;;;20.35;11.48;;;;;;;7.13;100.00;99933.31;4434313;78;28470;-80
2021/11/18 17:54:09;;;;;;;20.00;10.72;;;;;;;7.08;100.00;99935.73;4432902;78;28507;-79
2021/11/18 18:00:17;;;;;;;21.20;10.35;;;;;;;7.07;100.00;99955.47;4458424;78;28549;-83
2021/11/18 18:06:23;;;;;;;20.40;11.43;;;;;;;7.08;100.00;99947.27;4397791;78;28542;-82
2021/11/18 18:12:28;;;;;;;23.92;11.95;;;;;;;7.02;100.00;99907.89;4430848;77;28491;-81
2021/11/18 18:18:31;;;;;;;25.02;12.50;;;;;;;7.02;100.00;99898.53;4430024;78;28432;-84
2021/11/18 18:24:32;;;;;;;27.58;12.00;;;;;;;6.96;100.00;99891.25;4435036;78;28547;-82
2021/11/18 18:30:39;;;;;;;20.27;10.65;;;;;;;6.97;100.00;99899.09;4460471;78;28459;-81
2021/11/18 18:36:42;;;;;;;22.95;11.48;;;;;;;7.07;100.00;99908.67;4442033;78;28514;-81
2021/11/18 18:42:46;;;;;;;23.30;11.90;;;;;;;7.05;100.00;99902.69;4528916;78;28460;-83
2021/11/18 18:48:49;;;;;;;23.73;11.53;;;;;;;7.01;100.00;99922.28;4499848;78;28495;-84
2021/11/18 18:54:50;;;;;;;17.45;9.95;;;;;;;7.03;100.00;99908.70;4551942;78;28457;-82
2021/11/18 19:01:13;;;;;;;22.35;10.13;;;;;;;7.02;100.00;99899.03;4511097;78;28451;-83
2021/11/18 19:07:18;;;;;;;19.87;9.78;;;;;;;7.08;100.00;99895.63;4528438;78;28464;-82
2021/11/18 19:13:19;;;;;;;21.17;10.00;;;;;;;7.15;100.00;99892.53;4474321;77;28492;-84
2021/11/18 19:19:26;;;;;;;18.12;9.73;;;;;;;7.12;100.00;99896.89;4521122;78;28476;-83
2021/11/18 19:25:33;;;;;;;16.67;8.23;;;;;;;7.14;100.00;99888.20;4453064;77;28471;-82
2021/11/18 19:32:02;;;;;;;19.02;8.90;;;;;;;7.17;100.00;99889.64;4435513;79;28546;-83
2021/11/18 19:38:09;;;;;;;21.05;9.20;;;;;;;7.17;100.00;99885.14;4408865;79;28491;-81
2021/11/18 19:44:15;;;;;;;19.77;9.70;;;;;;;7.12;100.00;99874.16;4378913;79;28618;-80
2021/11/18 19:50:19;;;;;;;26.40;11.20;;;;;;;7.14;100.00;99882.85;4395948;80;28447;-84
2021/11/18 19:56:22;;;;;;;26.02;10.40;;;;;;;7.17;100.00;99880.28;4342081;80;28509;-87
2021/11/18 20:02:25;;;;;;;21.48;9.63;;;;;;;7.13;100.00;99875.81;4347793;80;28461;-85
2021/11/18 20:08:29;;;;;;;22.10;10.18;;;;;;;7.21;100.00;99871.70;4323225;81;28503;-82
2021/11/18 20:14:35;;;;;;;22.48;10.10;;;;;;;7.27;100.00;99877.33;4355824;80;28464;-83
2021/11/18 20:20:36;;;;;;;19.87;9.65;;;;;;;7.26;100.00;99879.16;4395810;79;28473;-83
2021/11/18 20:26:37;;;;;;;19.95;8.28;;;;;;;7.23;100.00;99869.66;4311862;82;28493;-83
2021/11/18 20:32:44;;;;;;;19.67;9.53;;;;;;;7.27;100.00;99863.42;4309353;81;28448;-83
2021/11/18 20:38:54;;;;;;;18.45;8.85;;;;;;;7.33;100.00;99849.31;4379550;79;28485;-84
2021/11/18 20:44:56;;;;;;;;;;;;;;;7.34;100.00;99854.97;4271931;83;28496;-83
2021/11/18 20:51:05;;;;;;;18.87;9.05;;;;;;;7.39;100.00;99849.05;4282293;82;20249;-83
2021/11/18 20:57:12;;;;;;;17.02;7.92;;;;;;;7.35;100.00;99837.91;4257267;82;28468;-81
2021/11/18 21:03:16;;;;;;;16.05;7.58;;;;;;;7.36;100.00;99842.23;4259592;82;28515;-89
2021/11/18 21:09:20;;;;;;;16.50;7.00;;;;;;;7.35;100.00;99836.56;4275618;81;28475;-84
2021/11/18 21:15:25;;;;;;;18.80;7.85;;;;;;;7.44;100.00;99830.57;4229953;82;28469;-83
2021/11/18 21:21:30;;;;;;;21.33;8.80;;;;;;;7.52;100.00;99821.61;4289991;81;28551;-87
2021/11/18 21:27:31;;;;;;;16.05;8.18;;;;;;;7.50;100.00;99813.77;4265581;82;28455;-81
2021/11/18 21:33:32;;;;;;;15.98;7.92;;;;;;;7.53;100.00;99808.55;4306194;81;28547;-81
2021/11/18 21:39:46;;;;;;;15.70;7.12;;;;;;;7.44;100.00;99801.66;4294802;80;28453;-84
2021/11/18 21:45:48;;;;;;;13.70;6.47;;;;;;;7.47;100.00;99799.44;4294849;81;28495;-87
2021/11/18 21:51:51;;;;;;;17.37;6.92;;;;;;;7.56;100.00;99808.15;4325308;81;28493;-87
2021/11/18 21:57:54;;;;;;;13.78;6.65;;;;;;;7.61;100.00;99800.39;4307627;81;28471;-88
2021/11/18 22:03:56;;;;;;;13.13;6.97;;;;;;;7.59;100.00;99795.71;4263814;82;28460;-83
2021/11/18 22:09:58;;;;;;;12.40;6.20;;;;;;;7.60;100.00;99789.86;4285503;81;28475;-83
2021/11/18 22:16:02;;;;;;;11.68;5.97;;;;;;;7.61;100.00;99784.83;4289611;81;28499;-84
2021/11/18 22:22:04;;;;;;;12.73;6.25;;;;;;;7.64;100.00;99783.09;4281678;81;28457;-83
2021/11/18 22:28:07;;;;;;;13.70;5.97;;;;;;;7.73;100.00;99771.75;4278411;81;28497;-84
2021/11/18 22:34:11;;;;;;;13.70;6.17;;;;;;;7.68;100.00;99764.30;4280084;81;28477;-84
2021/11/18 22:40:27;;;;;;;16.30;6.80;;;;;;;7.68;100.00;99767.80;4287030;80;28504;-80
2021/11/18 22:46:30;;;;;;;11.78;5.97;;;;;;;7.65;100.00;99753.47;4314577;80;28453;-82
2021/11/18 22:52:31;;;;;;;10.25;5.35;;;;;;;7.66;100.00;99735.58;4341986;80;28491;-83
2021/11/18 22:58:34;;;;;;;16.20;5.60;;;;;;;7.67;100.00;99725.99;4321337;81;28461;-86
2021/11/18 23:04:36;;;;;;;12.47;5.72;;;;;;;7.73;100.00;99727.59;4296041;81;28480;-89
2021/11/18 23:10:42;;;;;;;11.65;5.42;;;;;;;7.68;100.00;99722.29;4291426;81;28623;-86
2021/11/18 23:16:45;;;;;;;11.50;5.73;;;;;;;7.74;100.00;99722.02;4380414;80;36562;-83
2021/11/18 23:22:50;;;;;;;12.47;5.83;;;;;;;7.78;100.00;99714.43;4329161;80;28504;-89
2021/11/18 23:28:57;;;;;;;9.78;5.30;;;;;;;7.84;100.00;99703.45;4324700;80;28463;-86
2021/11/18 23:34:58;;;;;;;10.80;5.20;;;;;;;7.89;100.00;99707.72;4408561;79;28455;-86
2021/11/18 23:41:02;;;;;;;11.97;5.40;;;;;;;7.84;100.00;99692.23;4471400;77;28566;-83
2021/11/18 23:47:05;;;;;;;11.68;4.97;;;;;;;7.84;100.00;99691.40;4393709;79;28527;-83
2021/11/18 23:53:08;;;;;;;11.85;5.35;;;;;;;7.84;100.00;99678.02;4396098;79;28436;-83
2021/11/18 23:59:10;;;;;;;12.30;5.55;;;;;;;7.90;100.00;99663.84;4397182;79;28531;-81
